Time;durP1;ratioP1;P1;durP2;ratioP2;P2;SDS_P1;SDS_P2;PMS_P1;PMS_P2;Temp;Humidity;BMP_temperature;BMP_pressure;BME280_temperature;BME280_humidity;BME280_pressure;Samples;Min_cycle;Max_cycle;Signal;HPM_P1;HPM_P2
2023/05/06 00:01:33;;;;;;;1999.90;999.90;;;13.70;99.90;;;;;;5059916;28;20409;-78
2023/05/06 00:03:59;;;;;;;1999.90;999.90;;;13.60;99.90;;;;;;5076988;28;20033;-78
2023/05/06 00:06:26;;;;;;;1999.90;999.90;;;13.60;99.90;;;;;;5059048;28;20045;-78
2023/05/06 00:08:51;;;;;;;1999.90;999.90;;;13.60;99.90;;;;;;5076965;28;20029;-78
2023/05/06 00:11:17;;;;;;;1999.90;999.90;;;13.50;99.90;;;;;;5077191;28;20043;-78
2023/05/06 00:13:42;;;;;;;1999.90;999.90;;;13.50;99.90;;;;;;5076942;28;20114;-78
2023/05/06 00:16:08;;;;;;;1999.90;999.90;;;13.40;99.90;;;;;;5077161;28;20501;-79
2023/05/06 00:18:33;;;;;;;1999.90;999.90;;;13.40;99.90;;;;;;5077770;28;20083;-78
2023/05/06 00:20:59;;;;;;;1999.90;999.90;;;13.30;99.90;;;;;;5077719;28;20029;-78
2023/05/06 00:23:27;;;;;;;1999.90;999.90;;;13.30;99.90;;;;;;5076747;28;20045;-78
2023/05/06 00:25:53;;;;;;;1999.90;999.90;;;13.40;99.90;;;;;;5076580;28;20108;-79
2023/05/06 00:28:19;;;;;;;1999.90;999.90;;;13.30;99.90;;;;;;5076758;28;20080;-78
2023/05/06 00:30:44;;;;;;;1999.90;999.90;;;13.30;99.90;;;;;;5057690;28;20036;-79
2023/05/06 00:33:10;;;;;;;1999.90;999.90;;;13.40;99.90;;;;;;5076569;28;20522;-78
2023/05/06 00:35:35;;;;;;;1999.90;999.90;;;13.50;99.90;;;;;;5075579;28;20036;-78
2023/05/06 00:38:10;;;;;;;1999.90;999.90;;;13.50;99.90;;;;;;5058257;28;20037;-78
2023/05/06 00:40:36;;;;;;;1999.90;999.90;;;13.50;99.90;;;;;;5075978;28;20071;-80
2023/05/06 00:43:02;;;;;;;1999.90;999.90;;;13.60;99.90;;;;;;5058198;28;20128;-80
2023/05/06 00:45:27;;;;;;;1999.90;999.90;;;13.60;99.90;;;;;;5075829;28;20085;-79
2023/05/06 00:47:55;;;;;;;1999.90;999.90;;;13.60;99.90;;;;;;5057941;28;20876;-80
2023/05/06 00:50:21;;;;;;;1999.90;999.90;;;13.50;99.90;;;;;;5075634;28;20033;-79
2023/05/06 00:52:47;;;;;;;1999.90;999.90;;;13.50;99.90;;;;;;5076184;28;20041;-80
2023/05/06 00:55:13;;;;;;;1999.90;999.90;;;13.50;99.90;;;;;;5076208;28;20033;-80
2023/05/06 00:57:39;;;;;;;1999.90;999.90;;;13.60;99.90;;;;;;5058019;28;20057;-79
2023/05/06 01:00:06;;;;;;;1999.90;999.90;;;13.50;99.90;;;;;;5075821;28;20049;-79
2023/05/06 01:02:32;;;;;;;1999.90;999.90;;;13.50;99.90;;;;;;5057652;28;20548;-80
2023/05/06 01:04:58;;;;;;;1999.90;999.90;;;13.50;99.90;;;;;;5057869;28;20112;-79
2023/05/06 01:08:01;;;;;;;1999.90;999.90;;;13.50;99.90;;;;;;5058000;28;20033;-80
2023/05/06 01:10:35;;;;;;;1999.90;999.90;;;13.50;99.90;;;;;;5056983;28;20037;-79
2023/05/06 01:13:18;;;;;;;1999.90;999.90;;;13.50;99.90;;;;;;5057375;28;20041;-79
2023/05/06 01:15:46;;;;;;;1999.90;999.90;;;13.60;99.90;;;;;;5057287;28;20040;-79
2023/05/06 01:18:21;;;;;;;1999.90;999.90;;;13.50;99.90;;;;;;5057794;28;20120;-79
2023/05/06 01:20:48;;;;;;;1999.90;999.90;;;13.50;99.90;;;;;;5076092;28;20033;-80
2023/05/06 01:23:14;;;;;;;1999.90;999.90;;;13.50;99.90;;;;;;5057707;28;20120;-79
2023/05/06 01:25:40;;;;;;;1999.90;999.90;;;13.50;99.90;;;;;;5076281;28;20033;-80
2023/05/06 01:28:09;;;;;;;1999.90;999.90;;;13.50;99.90;;;;;;5058101;28;20662;-79
2023/05/06 01:30:59;;;;;;;1999.90;999.90;;;13.50;99.90;;;;;;5076664;28;20036;-80
2023/05/06 01:33:41;;;;;;;1999.90;999.90;;;13.50;99.90;;;;;;5058228;28;20045;-78
2023/05/06 01:36:28;;;;;;;1999.90;999.90;;;13.50;99.90;;;;;;5076936;28;20441;-78
2023/05/06 01:39:08;;;;;;;1999.90;999.90;;;13.40;99.90;;;;;;5077409;28;20040;-78
2023/05/06 01:41:36;;;;;;;1999.90;999.90;;;13.40;99.90;;;;;;5059832;28;20039;-78
2023/05/06 01:44:04;;;;;;;1999.90;999.90;;;13.40;99.90;;;;;;5080769;28;20128;-78
2023/05/06 01:46:31;;;;;;;1999.90;999.90;;;13.40;99.90;;;;;;5079998;28;20079;-79
2023/05/06 01:49:00;;;;;;;1999.90;999.90;;;13.50;99.90;;;;;;5060582;28;20044;-79
2023/05/06 01:51:25;;;;;;;1999.90;999.90;;;13.50;99.90;;;;;;5060107;28;20107;-78
2023/05/06 01:53:51;;;;;;;1999.90;999.90;;;13.40;99.90;;;;;;5060481;28;20542;-79
2023/05/06 01:56:17;;;;;;;1999.90;999.90;;;13.50;99.90;;;;;;5079529;28;20025;-79
2023/05/06 01:58:42;;;;;;;1999.90;999.90;;;13.50;99.90;;;;;;5060619;28;20033;-80
2023/05/06 02:01:08;;;;;;;1999.90;999.90;;;13.40;99.90;;;;;;5059491;28;20391;-79
2023/05/06 02:03:33;;;;;;;1999.90;999.90;;;13.50;99.90;;;;;;5059912;28;20037;-78
2023/05/06 02:05:59;;;;;;;1999.90;999.90;;;13.40;99.90;;;;;;5078097;28;20079;-79
2023/05/06 02:08:24;;;;;;;1999.90;999.90;;;13.40;99.90;;;;;;5080044;28;20045;-79
2023/05/06 02:10:50;;;;;;;1999.90;999.90;;;13.40;99.90;;;;;;5079883;28;20032;-80
2023/05/06 02:13:17;;;;;;;1999.90;999.90;;;13.40;99.90;;;;;;5080426;28;20107;-79
2023/05/06 02:15:43;;;;;;;1999.90;999.90;;;13.40;99.90;;;;;;5079848;28;20060;-79
2023/05/06 02:18:11;;;;;;;1999.90;999.90;;;13.40;99.90;;;;;;5080577;28;20033;-80
2023/05/06 02:20:36;;;;;;;1999.90;999.90;;;13.40;99.90;;;;;;5061397;28;20037;-80
2023/05/06 02:23:02;;;;;;;1999.90;999.90;;;13.30;99.90;;;;;;5080182;28;20032;-79
2023/05/06 02:25:28;;;;;;;1999.90;999.90;;;13.30;99.90;;;;;;5061190;28;20542;-79
2023/05/06 02:27:54;;;;;;;1999.90;999.90;;;13.30;99.90;;;;;;5080384;28;20025;-80
2023/05/06 02:30:19;;;;;;;1999.90;999.90;;;13.20;99.90;;;;;;5061993;28;20025;-79
2023/05/06 02:32:45;;;;;;;1999.90;999.90;;;13.20;99.90;;;;;;5080728;28;20044;-80
2023/05/06 02:35:11;;;;;;;1999.90;999.90;;;13.10;99.90;;;;;;5083173;28;20584;-80
2023/05/06 02:37:37;;;;;;;1999.90;999.90;;;13.00;99.90;;;;;;5063502;28;20043;-80
2023/05/06 02:40:05;;;;;;;1999.90;999.90;;;13.00;99.90;;;;;;5060029;28;20083;-80
2023/05/06 02:42:30;;;;;;;1999.90;999.90;;;13.10;99.90;;;;;;5059802;28;20536;-80
2023/05/06 02:44:56;;;;;;;1999.90;999.90;;;13.00;99.90;;;;;;5059944;28;20029;-80
2023/05/06 02:47:22;;;;;;;1999.90;999.90;;;13.00;99.90;;;;;;5059502;28;20045;-79
2023/05/06 02:49:47;;;;;;;1999.90;999.90;;;13.10;99.90;;;;;;5077166;28;20033;-79
2023/05/06 02:52:13;;;;;;;1999.90;999.90;;;13.10;99.90;;;;;;5077632;28;20041;-80
2023/05/06 02:54:38;;;;;;;1999.90;999.90;;;13.20;99.90;;;;;;5076534;28;20037;-80
2023/05/06 02:57:04;;;;;;;1999.90;999.90;;;13.20;99.90;;;;;;5078032;28;20044;-79
2023/05/06 02:59:29;;;;;;;1999.90;999.90;;;13.30;99.90;;;;;;5059552;28;20067;-80
2023/05/06 03:01:55;;;;;;;1999.90;999.90;;;13.30;99.90;;;;;;5059496;28;20448;-79
2023/05/06 03:04:21;;;;;;;1999.90;999.90;;;13.30;99.90;;;;;;5059049;28;20518;-80
2023/05/06 03:06:46;;;;;;;1999.90;999.90;;;13.40;99.90;;;;;;5078122;28;20116;-79
2023/05/06 03:09:12;;;;;;;1999.90;999.90;;;13.40;99.90;;;;;;5059843;28;20128;-80
2023/05/06 03:11:37;;;;;;;1999.90;999.90;;;13.40;99.90;;;;;;5077417;28;20121;-79
2023/05/06 03:14:03;;;;;;;1999.90;999.90;;;13.40;99.90;;;;;;5077309;28;20099;-80
2023/05/06 03:16:28;;;;;;;1999.90;999.90;;;13.50;99.90;;;;;;5077694;28;20033;-80
2023/05/06 03:18:54;;;;;;;1999.90;999.90;;;13.50;99.90;;;;;;5077530;28;20083;-79
2023/05/06 03:21:20;;;;;;;1999.90;999.90;;;13.50;99.90;;;;;;5076780;28;20029;-79
2023/05/06 03:23:45;;;;;;;1999.90;999.90;;;13.60;99.90;;;;;;5058157;28;20029;-78
2023/05/06 03:26:11;;;;;;;1999.90;999.90;;;13.40;99.90;;;;;;5076229;28;20037;-79
2023/05/06 03:28:37;;;;;;;1999.90;999.90;;;13.40;99.90;;;;;;5076880;28;20036;-80
2023/05/06 03:31:02;;;;;;;1999.90;999.90;;;13.30;99.90;;;;;;5076829;28;20052;-78
2023/05/06 03:33:28;;;;;;;1999.90;999.90;;;13.30;99.90;;;;;;5077259;28;20091;-79
2023/05/06 03:35:53;;;;;;;1999.90;999.90;;;13.40;99.90;;;;;;5077648;28;20116;-79
2023/05/06 03:38:19;;;;;;;1999.90;999.90;;;13.30;99.90;;;;;;5059463;28;20083;-79
2023/05/06 03:40:44;;;;;;;1999.90;999.90;;;13.30;99.90;;;;;;5058956;28;20112;-79
2023/05/06 03:43:10;;;;;;;1999.90;999.90;;;13.30;99.90;;;;;;5077443;28;20040;-79
2023/05/06 03:45:36;;;;;;;1999.90;999.90;;;13.30;99.90;;;;;;5058315;28;20045;-78
2023/05/06 03:48:02;;;;;;;1999.90;999.90;;;13.20;99.90;;;;;;5076255;28;20060;-80
2023/05/06 03:50:28;;;;;;;1999.90;999.90;;;13.20;99.90;;;;;;5076471;28;20187;-79
2023/05/06 03:52:53;;;;;;;1999.90;999.90;;;13.20;99.90;;;;;;5076772;28;20045;-79
2023/05/06 03:55:21;;;;;;;1999.90;999.90;;;13.20;99.90;;;;;;5076937;28;20051;-79
2023/05/06 03:57:47;;;;;;;1999.90;999.90;;;13.10;99.90;;;;;;5059714;28;20832;-79
2023/05/06 04:00:12;;;;;;;1999.90;999.90;;;13.10;99.90;;;;;;5060099;28;20441;-78
2023/05/06 04:02:38;;;;;;;1999.90;999.90;;;13.00;99.90;;;;;;5078553;28;20398;-78
2023/05/06 04:05:04;;;;;;;1999.90;999.90;;;13.10;99.90;;;;;;5078136;28;20045;-78
2023/05/06 04:07:29;;;;;;;1999.90;999.90;;;13.00;99.90;;;;;;5078838;28;20043;-78
2023/05/06 04:09:55;;;;;;;1999.90;999.90;;;13.00;99.90;;;;;;5078971;28;20033;-78
2023/05/06 04:12:21;;;;;;;1999.90;999.90;;;13.00;99.90;;;;;;5061305;28;20040;-78
2023/05/06 04:14:47;;;;;;;1999.90;999.90;;;12.90;99.90;;;;;;5061502;28;20821;-78
2023/05/06 04:17:12;;;;;;;1999.90;999.90;;;12.90;99.90;;;;;;5090880;28;20037;-78
2023/05/06 04:19:38;;;;;;;1999.90;999.90;;;12.90;99.90;;;;;;5083289;28;20025;-78
2023/05/06 04:22:04;;;;;;;1999.90;999.90;;;12.90;99.90;;;;;;5059437;28;20127;-78
2023/05/06 04:24:30;;;;;;;1999.90;999.90;;;12.80;99.90;;;;;;5058550;28;20081;-78
2023/05/06 04:26:55;;;;;;;1999.90;999.90;;;12.90;99.90;;;;;;5058572;28;20060;-78
2023/05/06 04:29:21;;;;;;;1999.90;999.90;;;12.90;99.90;;;;;;5077027;28;20513;-78
2023/05/06 04:31:47;;;;;;;1999.90;999.90;;;12.90;99.90;;;;;;5058756;28;20139;-78
2023/05/06 04:34:12;;;;;;;1999.90;999.90;;;12.90;99.90;;;;;;5058137;28;20119;-78
2023/05/06 04:36:38;;;;;;;1999.90;999.90;;;12.90;99.90;;;;;;5058590;28;20029;-78
2023/05/06 04:39:05;;;;;;;1999.90;999.90;;;12.90;99.90;;;;;;5077012;28;20074;-78
2023/05/06 04:41:31;;;;;;;1999.90;999.90;;;12.90;99.90;;;;;;5058413;28;20473;-78
2023/05/06 04:43:57;;;;;;;1999.90;999.90;;;13.00;99.90;;;;;;5077260;28;20039;-78
2023/05/06 04:46:23;;;;;;;1999.90;999.90;;;13.00;99.90;;;;;;5077369;28;20036;-78
2023/05/06 04:48:48;;;;;;;1999.90;999.90;;;13.10;99.90;;;;;;5076358;28;20041;-78
2023/05/06 04:51:14;;;;;;;1999.90;999.90;;;13.20;99.90;;;;;;5058105;28;20029;-79
2023/05/06 04:53:40;;;;;;;1999.90;999.90;;;13.20;99.90;;;;;;5058644;28;20037;-78
2023/05/06 04:56:06;;;;;;;1999.90;999.90;;;13.20;99.90;;;;;;5077787;28;20036;-78
2023/05/06 04:58:31;;;;;;;1999.90;999.90;;;13.30;99.90;;;;;;5077996;28;20072;-81
2023/05/06 05:00:58;;;;;;;1999.90;999.90;;;13.30;99.90;;;;;;5078102;28;20560;-80
2023/05/06 05:03:24;;;;;;;1999.90;999.90;;;13.50;99.90;;;;;;5060499;28;20033;-80
2023/05/06 05:05:49;;;;;;;1999.90;999.90;;;13.30;99.90;;;;;;5060148;28;20383;-80
2023/05/06 05:08:15;;;;;;;1999.90;999.90;;;13.20;99.90;;;;;;5058217;28;20033;-79
2023/05/06 05:10:42;;;;;;;1999.90;999.90;;;13.20;99.90;;;;;;5074913;28;20036;-79
2023/05/06 05:13:07;;;;;;;1999.90;999.90;;;13.20;99.90;;;;;;5075251;28;20828;-79
2023/05/06 05:15:33;;;;;;;1999.90;999.90;;;13.30;99.90;;;;;;5075153;28;20041;-79
2023/05/06 05:17:58;;;;;;;1999.90;999.90;;;13.50;99.90;;;;;;5060601;28;20032;-79
2023/05/06 05:20:24;;;;;;;1999.90;999.90;;;13.60;99.90;;;;;;5060845;28;20029;-79
2023/05/06 05:22:50;;;;;;;1999.90;999.90;;;13.60;99.90;;;;;;5063960;28;20116;-81
2023/05/06 05:25:15;;;;;;;1999.90;999.90;;;13.60;99.90;;;;;;5065001;28;20033;-81
2023/05/06 05:27:41;;;;;;;1999.90;999.90;;;13.60;99.90;;;;;;5061633;28;20109;-81
2023/05/06 05:30:08;;;;;;;1999.90;999.90;;;13.70;99.90;;;;;;5061931;28;20025;-80
2023/05/06 05:32:33;;;;;;;1999.90;999.90;;;13.80;99.90;;;;;;5100506;22;20050;-82
2023/05/06 05:34:59;;;;;;;1999.90;999.90;;;13.90;99.90;;;;;;5080278;28;20032;-80
2023/05/06 05:37:24;;;;;;;1999.90;999.90;;;13.80;99.90;;;;;;5081466;28;20490;-81
2023/05/06 05:39:50;;;;;;;1999.90;999.90;;;13.80;99.90;;;;;;5081091;28;20032;-80
2023/05/06 05:42:16;;;;;;;1999.90;999.90;;;13.80;99.90;;;;;;5100022;28;20028;-82
2023/05/06 05:44:41;;;;;;;1999.90;999.90;;;13.80;99.90;;;;;;5081593;28;20028;-81
2023/05/06 05:47:07;;;;;;;1999.90;999.90;;;13.70;99.90;;;;;;5100418;28;20116;-80
2023/05/06 05:49:32;;;;;;;1999.90;999.90;;;13.80;99.90;;;;;;5081012;28;20087;-81
2023/05/06 05:51:58;;;;;;;1999.90;999.90;;;13.80;99.90;;;;;;5081257;28;20045;-85
2023/05/06 05:54:23;;;;;;;1999.90;999.90;;;13.90;99.90;;;;;;5079593;28;20033;-84
2023/05/06 05:56:49;;;;;;;1999.90;999.90;;;14.10;99.90;;;;;;5080634;28;20178;-86
2023/05/06 05:59:14;;;;;;;1999.90;999.90;;;14.10;99.90;;;;;;5079867;28;20033;-81
2023/05/06 06:01:40;;;;;;;1999.90;999.90;;;14.20;99.90;;;;;;5096669;28;20485;-81
2023/05/06 06:04:06;;;;;;;1999.90;999.90;;;14.30;99.90;;;;;;5078637;28;20639;-82
2023/05/06 06:06:31;;;;;;;1999.90;999.90;;;14.30;99.90;;;;;;5078851;28;20031;-81
2023/05/06 06:08:57;;;;;;;1999.90;999.90;;;14.30;99.90;;;;;;5097293;28;20039;-82
2023/05/06 06:11:25;;;;;;;1999.90;999.90;;;14.30;99.90;;;;;;5097033;28;20032;-82
2023/05/06 06:13:51;;;;;;;1999.90;999.90;;;14.30;99.90;;;;;;5098865;28;20064;-83
2023/05/06 06:16:16;;;;;;;1999.90;999.90;;;14.20;99.90;;;;;;5098915;28;20571;-80
2023/05/06 06:18:42;;;;;;;1999.90;999.90;;;14.30;99.90;;;;;;5081209;28;20125;-81
2023/05/06 06:21:08;;;;;;;1999.90;999.90;;;14.50;99.90;;;;;;5100158;28;20033;-80
2023/05/06 06:23:33;;;;;;;1999.90;999.90;;;14.60;99.90;;;;;;5081469;28;20036;-80
2023/05/06 06:26:00;;;;;;;1999.90;999.90;;;14.80;99.90;;;;;;5101016;28;20417;-81
2023/05/06 06:28:25;;;;;;;1999.90;999.90;;;15.20;99.90;;;;;;5080613;28;20039;-82
2023/05/06 06:30:51;;;;;;;1999.90;999.90;;;15.10;99.90;;;;;;5098172;28;20039;-80
2023/05/06 06:33:16;;;;;;;1999.90;999.90;;;15.20;99.90;;;;;;5098905;28;20039;-80
2023/05/06 06:35:42;;;;;;;1999.90;999.90;;;15.10;99.90;;;;;;5079160;28;20032;-80
2023/05/06 06:38:08;;;;;;;1999.90;999.90;;;15.20;99.90;;;;;;5079585;28;20413;-79
2023/05/06 06:40:33;;;;;;;1999.90;999.90;;;15.30;99.90;;;;;;5097577;28;20070;-83
2023/05/06 06:42:59;;;;;;;1999.90;999.90;;;15.10;99.90;;;;;;5097820;28;20028;-83
2023/05/06 06:45:25;;;;;;;1999.90;999.90;;;15.10;99.90;;;;;;5096012;28;20032;-82
2023/05/06 06:47:51;;;;;;;1999.90;999.90;;;15.00;99.90;;;;;;5096335;28;20036;-83
2023/05/06 06:50:19;;;;;;;1999.90;999.90;;;15.00;99.90;;;;;;5097906;28;20420;-84
2023/05/06 06:52:45;;;;;;;1999.90;999.90;;;15.10;99.90;;;;;;5096541;28;20060;-83
2023/05/06 06:55:11;;;;;;;1999.90;999.90;;;15.00;99.90;;;;;;5096549;28;20056;-83
2023/05/06 06:57:37;;;;;;;1999.90;999.90;;;14.90;99.90;;;;;;5095918;28;20472;-83
2023/05/06 07:00:04;;;;;;;1999.90;999.90;;;14.90;99.90;;;;;;5096267;28;20056;-83
2023/05/06 07:02:29;;;;;;;1999.90;999.90;;;14.80;99.90;;;;;;5097734;28;20039;-84
2023/05/06 07:04:55;;;;;;;1999.90;999.90;;;14.90;99.90;;;;;;5097096;28;20033;-82
2023/05/06 07:07:21;;;;;;;1999.90;999.90;;;14.80;99.90;;;;;;5097284;28;20044;-83
2023/05/06 07:09:46;;;;;;;1999.90;999.90;;;14.80;99.90;;;;;;5097971;28;20543;-85
2023/05/06 07:12:12;;;;;;;1999.90;999.90;;;15.10;99.90;;;;;;5095867;28;20045;-80
2023/05/06 07:14:37;;;;;;;1999.90;999.90;;;15.70;99.90;;;;;;5095395;28;20029;-80
2023/05/06 07:17:03;;;;;;;1999.90;999.90;;;15.90;99.90;;;;;;5096377;28;20063;-82
2023/05/06 07:19:32;;;;;;;1999.90;999.90;;;16.10;99.90;;;;;;5095953;28;20119;-80
2023/05/06 07:21:58;;;;;;;1999.90;999.90;;;16.30;99.90;;;;;;5095350;28;20037;-84
2023/05/06 07:24:23;;;;;;;1999.90;999.90;;;16.50;99.90;;;;;;5096638;28;20384;-80
2023/05/06 07:26:49;;;;;;;1999.90;999.90;;;16.40;99.90;;;;;;5075097;28;20106;-79
2023/05/06 07:29:15;;;;;;;1999.90;999.90;;;16.20;99.90;;;;;;5077411;28;20043;-79
2023/05/06 07:31:40;;;;;;;1999.90;999.90;;;15.90;99.90;;;;;;5095496;28;20120;-80
2023/05/06 07:34:06;;;;;;;1999.90;999.90;;;15.50;99.90;;;;;;5077244;28;20036;-78
2023/05/06 07:36:39;;;;;;;1999.90;999.90;;;15.30;99.90;;;;;;5096871;28;20035;-80
2023/05/06 07:39:07;;;;;;;1999.90;999.90;;;15.20;99.90;;;;;;5095745;28;20039;-79
2023/05/06 07:41:33;;;;;;;1999.90;999.90;;;15.20;99.90;;;;;;5077553;28;20445;-76
2023/05/06 07:43:58;;;;;;;1999.90;999.90;;;15.30;99.90;;;;;;5095969;28;20039;-79
2023/05/06 07:46:24;;;;;;;1999.90;999.90;;;15.30;99.90;;;;;;5095941;28;20385;-78
2023/05/06 07:48:50;;;;;;;1999.90;999.90;;;15.50;99.90;;;;;;5096207;28;20032;-79
2023/05/06 07:51:16;;;;;;;1999.90;999.90;;;15.70;99.90;;;;;;5095868;28;20378;-78
2023/05/06 07:53:42;;;;;;;1999.90;999.90;;;16.10;99.90;;;;;;5077188;28;20410;-82
2023/05/06 07:56:07;;;;;;;1999.90;999.90;;;16.50;99.90;;;;;;5095065;28;20028;-80
2023/05/06 07:58:33;;;;;;;1999.90;999.90;;;17.00;99.90;;;;;;5077802;28;20101;-78
2023/05/06 08:00:59;;;;;;;1999.90;999.90;;;17.00;99.90;;;;;;5095645;28;20025;-79
2023/05/06 08:03:25;;;;;;;1999.90;999.90;;;17.10;99.90;;;;;;5095713;28;20048;-79
2023/05/06 08:05:51;;;;;;;1999.90;999.90;;;17.50;99.90;;;;;;5082013;28;20039;-80
2023/05/06 08:08:21;;;;;;;1999.90;999.90;;;17.60;99.90;;;;;;5082062;28;20037;-80
2023/05/06 08:10:46;;;;;;;1999.90;999.90;;;18.00;99.90;;;;;;5100266;28;20064;-81
2023/05/06 08:13:12;;;;;;;1999.90;999.90;;;18.10;99.90;;;;;;5080389;28;20568;-80
2023/05/06 08:15:38;;;;;;;1999.90;999.90;;;17.90;99.90;;;;;;5097416;28;20036;-80
2023/05/06 08:18:04;;;;;;;1999.90;999.90;;;17.60;99.90;;;;;;5079830;28;20033;-79
2023/05/06 08:20:29;;;;;;;1999.90;999.90;;;18.00;99.90;;;;;;5078808;28;20560;-79
2023/05/06 08:22:55;;;;;;;1999.90;999.90;;;18.60;99.90;;;;;;5078810;28;20032;-81
2023/05/06 08:25:20;;;;;;;1999.90;999.90;;;19.00;99.90;;;;;;5097601;28;20040;-80
2023/05/06 08:27:46;;;;;;;1999.90;999.90;;;18.80;99.90;;;;;;5078651;28;20035;-80
2023/05/06 08:30:12;;;;;;;1999.90;999.90;;;19.00;99.90;;;;;;5079397;28;20035;-81
2023/05/06 08:32:38;;;;;;;1999.90;999.90;;;19.10;99.90;;;;;;5078573;28;20040;-80
2023/05/06 08:35:06;;;;;;;1999.90;999.90;;;19.30;99.90;;;;;;5078441;28;20029;-82
2023/05/06 08:37:31;;;;;;;1999.90;999.90;;;19.10;99.90;;;;;;5079016;28;20033;-80
2023/05/06 08:39:57;;;;;;;1999.90;999.90;;;18.80;99.90;;;;;;5096950;28;20044;-80
2023/05/06 08:42:24;;;;;;;1999.90;999.90;;;18.80;99.90;;;;;;5096878;28;20044;-81
2023/05/06 08:44:51;;;;;;;1999.90;999.90;;;18.40;99.90;;;;;;5077705;28;20035;-80
2023/05/06 08:47:20;;;;;;;1999.90;999.90;;;18.00;99.90;;;;;;5097076;28;20812;-79
2023/05/06 08:49:46;;;;;;;1999.90;999.90;;;17.50;99.90;;;;;;5078758;28;20044;-80
2023/05/06 08:52:12;;;;;;;1999.90;999.90;;;17.10;99.90;;;;;;5095558;28;20044;-80
2023/05/06 08:54:39;;;;;;;1999.90;999.90;;;17.10;99.90;;;;;;5095869;28;20122;-80
2023/05/06 08:57:10;;;;;;;1999.90;999.90;;;17.40;99.90;;;;;;5078529;28;20033;-79
2023/05/06 08:59:36;;;;;;;1999.90;999.90;;;17.90;99.90;;;;;;5077837;28;20033;-80
2023/05/06 09:02:03;;;;;;;1999.90;999.90;;;18.00;99.90;;;;;;5076842;28;20037;-80
2023/05/06 09:04:29;;;;;;;1999.90;999.90;;;18.10;99.90;;;;;;5077063;28;20528;-81
2023/05/06 09:06:57;;;;;;;1999.90;999.90;;;18.10;99.90;;;;;;5077295;28;20032;-82
2023/05/06 09:09:23;;;;;;;1999.90;999.90;;;18.30;99.90;;;;;;5077581;28;20035;-82
2023/05/06 09:11:54;;;;;;;1999.90;999.90;;;18.50;99.90;;;;;;5095418;28;20082;-81
2023/05/06 09:14:20;;;;;;;1999.90;999.90;;;18.70;99.90;;;;;;5095727;28;20091;-81
2023/05/06 09:16:49;;;;;;;1999.90;999.90;;;18.40;99.90;;;;;;5096251;28;20032;-81
2023/05/06 09:19:16;;;;;;;1999.90;999.90;;;18.50;99.90;;;;;;5095645;28;20028;-81
2023/05/06 09:21:44;;;;;;;1999.90;999.90;;;18.40;99.90;;;;;;5095459;28;20089;-82
2023/05/06 09:24:12;;;;;;;1999.90;999.90;;;18.10;99.90;;;;;;5095271;28;20024;-81
2023/05/06 09:26:39;;;;;;;1999.90;999.90;;;18.20;99.90;;;;;;5095803;28;20170;-80
2023/05/06 09:29:06;;;;;;;1999.90;999.90;;;18.40;99.90;;;;;;5096109;28;20453;-82
2023/05/06 09:31:31;;;;;;;1999.90;999.90;;;18.60;99.90;;;;;;5076851;28;20776;-82
2023/05/06 09:33:59;;;;;;;1999.90;999.90;;;18.80;99.90;;;;;;5096626;28;20038;-82
2023/05/06 09:36:26;;;;;;;1999.90;999.90;;;19.30;99.90;;;;;;5078253;28;20033;-81
2023/05/06 09:38:54;;;;;;;1999.90;999.90;;;19.70;99.90;;;;;;5078953;28;20586;-81
2023/05/06 09:41:23;;;;;;;1999.90;999.90;;;19.50;99.90;;;;;;5077654;28;20056;-81
2023/05/06 09:43:49;;;;;;;1999.90;999.90;;;19.20;99.90;;;;;;5077407;28;20517;-79
2023/05/06 09:46:16;;;;;;;1999.90;999.90;;;19.30;99.90;;;;;;5078126;28;20024;-79
2023/05/06 09:48:42;;;;;;;1999.90;999.90;;;19.30;99.90;;;;;;5077486;28;20554;-78
2023/05/06 09:51:07;;;;;;;1999.90;999.90;;;19.60;99.90;;;;;;5077734;28;20060;-79
2023/05/06 09:53:36;;;;;;;1999.90;999.90;;;19.60;99.90;;;;;;5077325;28;20115;-80
2023/05/06 09:56:06;;;;;;;1999.90;999.90;;;19.90;99.90;;;;;;5095370;28;20124;-79
2023/05/06 09:58:34;;;;;;;1999.90;999.90;;;20.30;99.90;;;;;;5077166;28;20037;-81
2023/05/06 10:01:00;;;;;;;1999.90;999.90;;;20.60;99.90;;;;;;5077098;28;20033;-82
2023/05/06 10:03:26;;;;;;;1999.90;999.90;;;20.90;99.90;;;;;;5080470;28;20040;-82
2023/05/06 10:05:58;;;;;;;1999.90;999.90;;;21.20;99.90;;;;;;5080068;28;20025;-82
2023/05/06 10:08:24;;;;;;;1999.90;999.90;;;21.50;99.90;;;;;;5099717;28;20442;-79
2023/05/06 10:10:50;;;;;;;1999.90;999.90;;;20.90;99.90;;;;;;5098886;28;20124;-80
2023/05/06 10:13:18;;;;;;;1999.90;999.90;;;21.30;99.90;;;;;;5099036;28;20098;-80
2023/05/06 10:15:46;;;;;;;1999.90;999.90;;;21.70;99.30;;;;;;5098838;28;20471;-79
2023/05/06 10:18:15;;;;;;;1999.90;999.90;;;21.90;97.70;;;;;;5081982;28;20033;-80
2023/05/06 10:20:41;;;;;;;1999.90;999.90;;;22.20;96.10;;;;;;5098708;28;20473;-80
2023/05/06 10:23:21;;;;;;;1999.90;999.90;;;22.40;96.00;;;;;;5099161;28;20043;-80
2023/05/06 10:25:50;;;;;;;1999.90;999.90;;;22.40;94.60;;;;;;5099279;28;20025;-79
2023/05/06 10:28:19;;;;;;;1999.90;999.90;;;22.10;94.30;;;;;;5099356;28;20056;-79
2023/05/06 10:30:46;;;;;;;1999.90;999.90;;;22.00;94.90;;;;;;5078743;28;20059;-80
2023/05/06 10:33:13;;;;;;;1999.90;999.90;;;21.90;94.70;;;;;;5098903;28;20093;-80
2023/05/06 10:36:06;;;;;;;1999.90;999.90;;;21.60;94.20;;;;;;5097863;28;20753;-80
2023/05/06 10:38:38;;;;;;;1999.90;999.90;;;22.10;95.80;;;;;;5098111;28;20043;-80
2023/05/06 10:41:07;;;;;;;1999.90;999.90;;;22.60;95.10;;;;;;5079872;28;20768;-80
2023/05/06 10:43:34;;;;;;;1999.90;999.90;;;22.90;92.80;;;;;;5080125;28;20535;-80
2023/05/06 10:46:04;;;;;;;1999.90;999.90;;;23.00;93.00;;;;;;5079794;28;20032;-79
2023/05/06 10:48:31;;;;;;;1999.90;999.90;;;23.30;92.20;;;;;;5098671;28;20033;-79
2023/05/06 10:51:18;;;;;;;1999.90;999.90;;;23.70;92.70;;;;;;5079090;28;20510;-80
2023/05/06 10:54:06;;;;;;;1999.90;999.90;;;23.40;90.50;;;;;;5097455;28;20068;-79
2023/05/06 10:56:58;;;;;;;1999.90;999.90;;;23.10;90.30;;;;;;5098461;28;20513;-79
2023/05/06 10:59:25;;;;;;;1999.90;999.90;;;22.50;90.30;;;;;;5048446;28;20052;-79
2023/05/06 11:02:06;;;;;;;1999.90;999.90;;;22.70;88.60;;;;;;5098210;28;20033;-80
2023/05/06 11:04:32;;;;;;;1999.90;999.90;;;22.70;89.60;;;;;;5079558;28;20040;-80
2023/05/06 11:07:13;;;;;;;1999.90;999.90;;;22.60;92.20;;;;;;5098054;28;20039;-79
2023/05/06 11:10:01;;;;;;;1999.90;999.90;;;22.30;90.50;;;;;;5079880;28;20043;-79
2023/05/06 11:12:45;;;;;;;1999.90;999.90;;;22.30;93.50;;;;;;5097593;28;20076;-80
2023/05/06 11:15:39;;;;;;;1999.90;999.90;;;22.80;91.40;;;;;;5078515;28;20110;-79
2023/05/06 11:18:23;;;;;;;1999.90;999.90;;;22.70;91.20;;;;;;5079400;28;20071;-80
2023/05/06 11:21:03;;;;;;;1999.90;999.90;;;22.40;91.30;;;;;;5098285;28;20039;-79
2023/05/06 11:23:41;;;;;;;1999.90;999.90;;;22.20;90.70;;;;;;5079046;28;20068;-81
2023/05/06 11:26:10;;;;;;;1999.90;999.90;;;22.50;92.00;;;;;;5097011;28;20040;-81
2023/05/06 11:28:37;;;;;;;1999.90;999.90;;;23.00;90.80;;;;;;5097374;28;20028;-82
2023/05/06 11:31:03;;;;;;;1999.90;999.90;;;23.30;90.40;;;;;;5094482;22;20036;-75
2023/05/06 11:33:33;;;;;;;1999.90;999.90;;;23.40;88.70;;;;;;5074490;28;20049;-75
2023/05/06 11:36:00;;;;;;;1999.90;999.90;;;23.60;87.70;;;;;;5075355;28;20033;-75
2023/05/06 11:38:26;;;;;;;1999.90;999.90;;;23.10;87.90;;;;;;5075810;28;20482;-74
2023/05/06 11:40:52;;;;;;;1999.90;999.90;;;22.90;87.90;;;;;;5075365;28;20037;-75
2023/05/06 11:43:17;;;;;;;1999.90;999.90;;;22.50;87.90;;;;;;5057272;28;20037;-75
2023/05/06 11:45:45;;;;;;;1999.90;999.90;;;22.20;88.90;;;;;;5075444;28;20044;-75
2023/05/06 11:48:15;;;;;;;1999.90;999.90;;;22.40;90.10;;;;;;5057119;28;20053;-75
2023/05/06 11:50:48;;;;;;;1999.90;999.90;;;22.60;91.00;;;;;;5057428;28;20025;-75
2023/05/06 11:53:17;;;;;;;1999.90;999.90;;;22.80;87.10;;;;;;5075146;28;20041;-76
2023/05/06 11:55:44;;;;;;;1999.90;999.90;;;23.10;86.10;;;;;;5075236;28;20029;-74
2023/05/06 11:58:26;;;;;;;1999.90;999.90;;;22.90;90.50;;;;;;5056884;28;20032;-74
2023/05/06 12:00:56;;;;;;;1999.90;999.90;;;23.30;91.00;;;;;;5075397;28;20033;-74